Candido Mota, Brazil
Current Conditions -  °F | °C
As of 3:00 PM on Saturday 20 Dec 2014 (Local Time) from SBLO Reporting Station
Broken Clouds Broken Clouds  
Wind Chill: 90°   Ceiling: 2000
Heat Index: 95°   Visibility: 6mi
Dew Point: 70°   Wind: 12mph
Humidity: 52%   Direction: 60°ENE
Pressure: 29.83"   Gusts: NA
Location:  22.75°S, 50.39°W
Report Text: SBLO 201700Z 06010KT 9999 BKN020 32/21 Q1010
Loading
Personal Weather Stations






























Interactive Weather Map New forecast layout! Learn more

10-Day Weather Forecast

Advertisements
Track Severe Weather on mobile